sensor_id;sensor_type;location;lat;lon;timestamp;temperature;humidity
431;DHT22;202;48.764;9.172;2024-02-14T00:01:08;7.90;25.60
431;DHT22;202;48.764;9.172;2024-02-14T00:03:37;7.80;25.50
431;DHT22;202;48.764;9.172;2024-02-14T00:06:05;7.90;25.30
431;DHT22;202;48.764;9.172;2024-02-14T00:08:39;7.90;25.20
431;DHT22;202;48.764;9.172;2024-02-14T00:11:12;7.80;25.60
431;DHT22;202;48.764;9.172;2024-02-14T00:13:39;7.80;25.80
431;DHT22;202;48.764;9.172;2024-02-14T00:16:07;7.90;25.20
431;DHT22;202;48.764;9.172;2024-02-14T00:18:40;7.80;25.50
431;DHT22;202;48.764;9.172;2024-02-14T00:21:12;7.60;25.90
431;DHT22;202;48.764;9.172;2024-02-14T00:23:40;7.50;25.90
431;DHT22;202;48.764;9.172;2024-02-14T00:26:09;7.40;26.40
431;DHT22;202;48.764;9.172;2024-02-14T00:28:37;7.20;27.40
431;DHT22;202;48.764;9.172;2024-02-14T00:31:08;7.00;27.80
431;DHT22;202;48.764;9.172;2024-02-14T00:33:38;7.10;27.90
431;DHT22;202;48.764;9.172;2024-02-14T00:36:06;7.20;27.70
431;DHT22;202;48.764;9.172;2024-02-14T00:38:41;7.20;28.00
431;DHT22;202;48.764;9.172;2024-02-14T00:41:10;7.30;27.60
431;DHT22;202;48.764;9.172;2024-02-14T00:43:38;7.30;27.30
431;DHT22;202;48.764;9.172;2024-02-14T00:46:15;7.30;27.80
431;DHT22;202;48.764;9.172;2024-02-14T00:48:46;7.40;27.60
431;DHT22;202;48.764;9.172;2024-02-14T00:51:22;7.40;27.50
431;DHT22;202;48.764;9.172;2024-02-14T00:53:53;7.40;27.50
431;DHT22;202;48.764;9.172;2024-02-14T00:56:20;7.30;27.80
431;DHT22;202;48.764;9.172;2024-02-14T00:58:49;7.30;28.20
431;DHT22;202;48.764;9.172;2024-02-14T01:01:16;7.40;28.00
431;DHT22;202;48.764;9.172;2024-02-14T01:03:45;7.40;28.20
431;DHT22;202;48.764;9.172;2024-02-14T01:06:15;7.40;28.20
431;DHT22;202;48.764;9.172;2024-02-14T01:08:50;7.40;29.20
431;DHT22;202;48.764;9.172;2024-02-14T01:11:22;7.50;29.70
431;DHT22;202;48.764;9.172;2024-02-14T01:13:54;7.60;29.90
431;DHT22;202;48.764;9.172;2024-02-14T01:16:25;7.60;30.40
431;DHT22;202;48.764;9.172;2024-02-14T01:18:54;7.60;30.90
431;DHT22;202;48.764;9.172;2024-02-14T01:21:26;7.60;30.90
431;DHT22;202;48.764;9.172;2024-02-14T01:23:57;7.60;30.80
431;DHT22;202;48.764;9.172;2024-02-14T01:26:30;7.60;31.20
431;DHT22;202;48.764;9.172;2024-02-14T01:28:57;7.60;31.60
431;DHT22;202;48.764;9.172;2024-02-14T01:31:29;7.60;32.60
431;DHT22;202;48.764;9.172;2024-02-14T01:33:57;7.80;32.10
431;DHT22;202;48.764;9.172;2024-02-14T01:36:26;7.70;32.20
431;DHT22;202;48.764;9.172;2024-02-14T01:38:58;7.70;32.50
431;DHT22;202;48.764;9.172;2024-02-14T01:41:38;7.80;32.80
431;DHT22;202;48.764;9.172;2024-02-14T01:44:05;7.80;32.80
431;DHT22;202;48.764;9.172;2024-02-14T01:46:32;7.80;32.80
431;DHT22;202;48.764;9.172;2024-02-14T01:49:05;7.90;32.80
431;DHT22;202;48.764;9.172;2024-02-14T01:51:36;7.70;32.80
431;DHT22;202;48.764;9.172;2024-02-14T01:54:06;7.80;32.80
431;DHT22;202;48.764;9.172;2024-02-14T01:56:46;7.80;32.80
431;DHT22;202;48.764;9.172;2024-02-14T01:59:17;8.00;33.00
431;DHT22;202;48.764;9.172;2024-02-14T02:01:45;8.10;33.10
431;DHT22;202;48.764;9.172;2024-02-14T02:04:19;8.10;32.60
431;DHT22;202;48.764;9.172;2024-02-14T02:06:56;8.10;32.10
431;DHT22;202;48.764;9.172;2024-02-14T02:09:29;8.20;31.90
431;DHT22;202;48.764;9.172;2024-02-14T02:12:00;8.20;31.80
431;DHT22;202;48.764;9.172;2024-02-14T02:14:33;8.20;32.10
431;DHT22;202;48.764;9.172;2024-02-14T02:17:07;8.00;33.00
431;DHT22;202;48.764;9.172;2024-02-14T02:23:20;8.00;33.00
431;DHT22;202;48.764;9.172;2024-02-14T02:26:03;8.20;33.20
431;DHT22;202;48.764;9.172;2024-02-14T02:28:36;8.20;33.20
431;DHT22;202;48.764;9.172;2024-02-14T02:31:05;8.40;32.70
431;DHT22;202;48.764;9.172;2024-02-14T02:33:35;8.40;32.70
431;DHT22;202;48.764;9.172;2024-02-14T02:36:02;8.50;32.00
431;DHT22;202;48.764;9.172;2024-02-14T02:38:30;8.60;30.70
431;DHT22;202;48.764;9.172;2024-02-14T02:40:57;8.60;30.50
431;DHT22;202;48.764;9.172;2024-02-14T02:43:33;8.60;30.50
431;DHT22;202;48.764;9.172;2024-02-14T02:46:23;8.50;30.20
431;DHT22;202;48.764;9.172;2024-02-14T02:49:14;8.50;30.60
431;DHT22;202;48.764;9.172;2024-02-14T02:52:05;8.50;31.60
431;DHT22;202;48.764;9.172;2024-02-14T02:54:47;8.50;31.00
431;DHT22;202;48.764;9.172;2024-02-14T02:57:31;8.50;31.10
431;DHT22;202;48.764;9.172;2024-02-14T03:00:28;8.60;30.60
431;DHT22;202;48.764;9.172;2024-02-14T03:03:24;8.50;29.60
431;DHT22;202;48.764;9.172;2024-02-14T03:06:27;8.40;30.00
431;DHT22;202;48.764;9.172;2024-02-14T03:09:12;8.50;31.10
431;DHT22;202;48.764;9.172;2024-02-14T03:12:19;8.40;30.60
431;DHT22;202;48.764;9.172;2024-02-14T03:18:26;8.50;30.00
431;DHT22;202;48.764;9.172;2024-02-14T03:21:07;8.40;29.90
431;DHT22;202;48.764;9.172;2024-02-14T03:23:50;8.30;30.80
431;DHT22;202;48.764;9.172;2024-02-14T03:26:26;8.30;30.20
431;DHT22;202;48.764;9.172;2024-02-14T03:29:03;8.40;31.10
431;DHT22;202;48.764;9.172;2024-02-14T03:31:44;8.50;30.00
431;DHT22;202;48.764;9.172;2024-02-14T03:34:13;8.40;30.50
431;DHT22;202;48.764;9.172;2024-02-14T03:36:57;8.40;30.50
431;DHT22;202;48.764;9.172;2024-02-14T03:39:45;8.50;30.20
431;DHT22;202;48.764;9.172;2024-02-14T03:42:17;8.50;29.80
431;DHT22;202;48.764;9.172;2024-02-14T03:45:20;8.50;30.00
431;DHT22;202;48.764;9.172;2024-02-14T03:47:47;8.40;30.30
431;DHT22;202;48.764;9.172;2024-02-14T03:50:14;8.30;30.80
431;DHT22;202;48.764;9.172;2024-02-14T03:52:46;8.40;30.40
431;DHT22;202;48.764;9.172;2024-02-14T03:55:20;8.40;30.70
431;DHT22;202;48.764;9.172;2024-02-14T03:57:49;8.30;31.30
431;DHT22;202;48.764;9.172;2024-02-14T04:00:29;8.40;30.70
431;DHT22;202;48.764;9.172;2024-02-14T04:03:02;8.50;30.00
431;DHT22;202;48.764;9.172;2024-02-14T04:05:35;8.40;30.90
431;DHT22;202;48.764;9.172;2024-02-14T04:08:29;8.50;30.30
431;DHT22;202;48.764;9.172;2024-02-14T04:11:53;8.60;29.40
431;DHT22;202;48.764;9.172;2024-02-14T04:35:13;8.40;28.70
431;DHT22;202;48.764;9.172;2024-02-14T04:37:50;8.40;29.10
431;DHT22;202;48.764;9.172;2024-02-14T04:40:20;8.50;28.80
431;DHT22;202;48.764;9.172;2024-02-14T04:42:52;8.50;27.60
431;DHT22;202;48.764;9.172;2024-02-14T04:45:44;8.50;28.20
431;DHT22;202;48.764;9.172;2024-02-14T04:48:11;8.50;28.20
431;DHT22;202;48.764;9.172;2024-02-14T04:50:43;8.60;27.80
431;DHT22;202;48.764;9.172;2024-02-14T04:53:18;8.70;27.60
431;DHT22;202;48.764;9.172;2024-02-14T04:55:45;8.80;27.30
431;DHT22;202;48.764;9.172;2024-02-14T04:58:15;8.80;27.20
431;DHT22;202;48.764;9.172;2024-02-14T05:00:49;8.80;26.80
431;DHT22;202;48.764;9.172;2024-02-14T05:07:24;8.80;27.00
431;DHT22;202;48.764;9.172;2024-02-14T05:13:31;8.70;27.30
431;DHT22;202;48.764;9.172;2024-02-14T05:16:09;8.70;27.40
431;DHT22;202;48.764;9.172;2024-02-14T05:34:41;8.70;27.10
431;DHT22;202;48.764;9.172;2024-02-14T05:37:08;8.50;27.70
431;DHT22;202;48.764;9.172;2024-02-14T05:39:46;8.50;27.60
431;DHT22;202;48.764;9.172;2024-02-14T05:42:14;8.40;27.90
431;DHT22;202;48.764;9.172;2024-02-14T05:44:43;8.50;28.00
431;DHT22;202;48.764;9.172;2024-02-14T05:47:17;8.50;27.70
431;DHT22;202;48.764;9.172;2024-02-14T06:00:03;8.80;27.30
431;DHT22;202;48.764;9.172;2024-02-14T06:02:33;8.60;27.20
431;DHT22;202;48.764;9.172;2024-02-14T06:05:01;8.50;27.60
431;DHT22;202;48.764;9.172;2024-02-14T06:07:38;8.50;28.00
431;DHT22;202;48.764;9.172;2024-02-14T06:10:09;8.50;27.90
431;DHT22;202;48.764;9.172;2024-02-14T06:12:56;8.50;27.90
431;DHT22;202;48.764;9.172;2024-02-14T06:15:26;8.60;27.90
431;DHT22;202;48.764;9.172;2024-02-14T06:18:00;8.50;28.10
431;DHT22;202;48.764;9.172;2024-02-14T06:20:38;8.60;27.80
431;DHT22;202;48.764;9.172;2024-02-14T06:23:07;8.50;27.90
431;DHT22;202;48.764;9.172;2024-02-14T06:25:39;8.50;28.80
431;DHT22;202;48.764;9.172;2024-02-14T06:28:10;8.50;28.10
431;DHT22;202;48.764;9.172;2024-02-14T06:30:47;8.60;27.80
431;DHT22;202;48.764;9.172;2024-02-14T06:33:35;8.70;28.00
431;DHT22;202;48.764;9.172;2024-02-14T06:36:08;8.80;27.50
431;DHT22;202;48.764;9.172;2024-02-14T06:38:40;8.80;27.40
431;DHT22;202;48.764;9.172;2024-02-14T06:41:09;8.80;26.80
431;DHT22;202;48.764;9.172;2024-02-14T06:43:40;8.80;26.80
431;DHT22;202;48.764;9.172;2024-02-14T06:46:14;8.80;26.90
431;DHT22;202;48.764;9.172;2024-02-14T06:48:48;8.60;27.40
431;DHT22;202;48.764;9.172;2024-02-14T06:51:18;8.70;27.40
431;DHT22;202;48.764;9.172;2024-02-14T06:53:47;8.70;27.50
431;DHT22;202;48.764;9.172;2024-02-14T06:56:22;8.60;27.50
431;DHT22;202;48.764;9.172;2024-02-14T06:59:25;8.70;27.50
431;DHT22;202;48.764;9.172;2024-02-14T07:05:36;8.90;27.10
431;DHT22;202;48.764;9.172;2024-02-14T07:15:20;8.90;27.00
431;DHT22;202;48.764;9.172;2024-02-14T07:21:34;9.10;26.60
431;DHT22;202;48.764;9.172;2024-02-14T07:27:39;9.20;26.70
431;DHT22;202;48.764;9.172;2024-02-14T08:11:29;10.20;23.90
431;DHT22;202;48.764;9.172;2024-02-14T08:14:51;10.30;23.60
431;DHT22;202;48.764;9.172;2024-02-14T08:20:54;10.50;23.50
431;DHT22;202;48.764;9.172;2024-02-14T08:23:48;10.50;23.20
431;DHT22;202;48.764;9.172;2024-02-14T08:26:47;10.50;23.30
431;DHT22;202;48.764;9.172;2024-02-14T08:29:46;10.60;23.20
431;DHT22;202;48.764;9.172;2024-02-14T08:36:52;10.70;22.80
431;DHT22;202;48.764;9.172;2024-02-14T09:03:40;11.50;21.50
431;DHT22;202;48.764;9.172;2024-02-14T11:28:28;13.90;26.00
431;DHT22;202;48.764;9.172;2024-02-14T11:31:30;13.90;26.30
431;DHT22;202;48.764;9.172;2024-02-14T11:43:51;14.00;27.80
431;DHT22;202;48.764;9.172;2024-02-14T11:46:46;14.00;26.60
431;DHT22;202;48.764;9.172;2024-02-14T11:49:42;14.10;26.60
431;DHT22;202;48.764;9.172;2024-02-14T11:52:22;14.20;26.50
431;DHT22;202;48.764;9.172;2024-02-14T11:55:00;14.10;26.30
431;DHT22;202;48.764;9.172;2024-02-14T11:57:38;14.20;26.10
431;DHT22;202;48.764;9.172;2024-02-14T12:00:26;14.20;26.20
431;DHT22;202;48.764;9.172;2024-02-14T12:03:09;14.20;26.20
431;DHT22;202;48.764;9.172;2024-02-14T12:06:04;14.20;26.00
431;DHT22;202;48.764;9.172;2024-02-14T12:08:43;14.30;26.20
431;DHT22;202;48.764;9.172;2024-02-14T12:11:23;14.40;25.80
431;DHT22;202;48.764;9.172;2024-02-14T12:13:51;14.40;25.80
431;DHT22;202;48.764;9.172;2024-02-14T12:16:21;14.50;25.90
431;DHT22;202;48.764;9.172;2024-02-14T12:19:06;14.70;25.20
431;DHT22;202;48.764;9.172;2024-02-14T12:21:50;14.70;24.90
431;DHT22;202;48.764;9.172;2024-02-14T12:24:55;14.80;24.80
431;DHT22;202;48.764;9.172;2024-02-14T12:27:50;14.90;24.70
431;DHT22;202;48.764;9.172;2024-02-14T12:33:25;14.90;24.50
431;DHT22;202;48.764;9.172;2024-02-14T12:35:54;14.90;24.70
431;DHT22;202;48.764;9.172;2024-02-14T12:38:31;14.90;24.70
431;DHT22;202;48.764;9.172;2024-02-14T12:41:23;14.90;24.60
431;DHT22;202;48.764;9.172;2024-02-14T12:43:53;14.90;25.10
431;DHT22;202;48.764;9.172;2024-02-14T12:46:23;14.80;24.80
431;DHT22;202;48.764;9.172;2024-02-14T12:48:59;14.90;25.10
431;DHT22;202;48.764;9.172;2024-02-14T12:51:31;15.00;24.50
431;DHT22;202;48.764;9.172;2024-02-14T12:54:09;14.90;24.60
431;DHT22;202;48.764;9.172;2024-02-14T12:56:40;15.00;24.50
431;DHT22;202;48.764;9.172;2024-02-14T12:59:22;15.00;24.70
431;DHT22;202;48.764;9.172;2024-02-14T13:01:54;15.10;24.40
431;DHT22;202;48.764;9.172;2024-02-14T13:04:25;15.10;24.30
431;DHT22;202;48.764;9.172;2024-02-14T13:06:59;15.00;24.50
431;DHT22;202;48.764;9.172;2024-02-14T13:09:26;15.00;24.50
431;DHT22;202;48.764;9.172;2024-02-14T13:11:56;15.00;24.50
431;DHT22;202;48.764;9.172;2024-02-14T13:14:24;15.10;25.00
431;DHT22;202;48.764;9.172;2024-02-14T13:16:53;15.20;24.90
431;DHT22;202;48.764;9.172;2024-02-14T13:19:31;15.30;24.40
431;DHT22;202;48.764;9.172;2024-02-14T13:22:00;15.40;24.00
431;DHT22;202;48.764;9.172;2024-02-14T13:24:30;15.30;23.80
431;DHT22;202;48.764;9.172;2024-02-14T13:27:05;15.30;24.00
431;DHT22;202;48.764;9.172;2024-02-14T13:29:32;15.30;24.50
431;DHT22;202;48.764;9.172;2024-02-14T13:32:18;15.40;24.20
431;DHT22;202;48.764;9.172;2024-02-14T13:34:58;15.40;24.10
431;DHT22;202;48.764;9.172;2024-02-14T13:37:32;15.40;24.40
431;DHT22;202;48.764;9.172;2024-02-14T13:40:04;15.40;24.40
431;DHT22;202;48.764;9.172;2024-02-14T13:42:35;15.50;24.30
431;DHT22;202;48.764;9.172;2024-02-14T13:45:04;15.50;24.00
431;DHT22;202;48.764;9.172;2024-02-14T13:47:37;15.50;24.20
431;DHT22;202;48.764;9.172;2024-02-14T13:50:10;15.50;24.40
431;DHT22;202;48.764;9.172;2024-02-14T13:52:40;15.50;24.30
431;DHT22;202;48.764;9.172;2024-02-14T13:55:08;15.60;24.30
431;DHT22;202;48.764;9.172;2024-02-14T13:57:45;15.60;24.00
431;DHT22;202;48.764;9.172;2024-02-14T14:00:27;15.60;24.30
431;DHT22;202;48.764;9.172;2024-02-14T14:02:56;15.60;24.30
431;DHT22;202;48.764;9.172;2024-02-14T14:05:33;15.70;24.40
431;DHT22;202;48.764;9.172;2024-02-14T14:08:06;15.60;24.50
431;DHT22;202;48.764;9.172;2024-02-14T14:10:36;15.60;24.60
431;DHT22;202;48.764;9.172;2024-02-14T14:13:07;15.70;24.70
431;DHT22;202;48.764;9.172;2024-02-14T14:15:39;15.60;24.80
431;DHT22;202;48.764;9.172;2024-02-14T14:18:09;15.60;25.00
431;DHT22;202;48.764;9.172;2024-02-14T14:20:41;15.60;25.20
431;DHT22;202;48.764;9.172;2024-02-14T14:23:09;15.60;25.60
431;DHT22;202;48.764;9.172;2024-02-14T14:25:41;15.50;25.30
431;DHT22;202;48.764;9.172;2024-02-14T14:28:17;15.50;25.30
431;DHT22;202;48.764;9.172;2024-02-14T14:30:51;15.50;25.50
431;DHT22;202;48.764;9.172;2024-02-14T14:33:21;15.50;25.30
431;DHT22;202;48.764;9.172;2024-02-14T14:35:52;15.50;25.30
431;DHT22;202;48.764;9.172;2024-02-14T14:38:20;15.50;25.30
431;DHT22;202;48.764;9.172;2024-02-14T14:40:54;15.50;25.30
431;DHT22;202;48.764;9.172;2024-02-14T14:43:25;15.50;25.40
431;DHT22;202;48.764;9.172;2024-02-14T14:45:53;15.50;25.60
431;DHT22;202;48.764;9.172;2024-02-14T14:48:22;15.50;25.50
431;DHT22;202;48.764;9.172;2024-02-14T14:50:49;15.40;25.50
431;DHT22;202;48.764;9.172;2024-02-14T14:53:18;15.40;25.60
431;DHT22;202;48.764;9.172;2024-02-14T14:55:55;15.40;25.60
431;DHT22;202;48.764;9.172;2024-02-14T14:58:26;15.40;25.70
431;DHT22;202;48.764;9.172;2024-02-14T15:00:54;15.10;26.30
431;DHT22;202;48.764;9.172;2024-02-14T15:03:21;15.20;26.30
431;DHT22;202;48.764;9.172;2024-02-14T15:05:49;15.30;26.20
431;DHT22;202;48.764;9.172;2024-02-14T15:08:19;15.10;26.50
431;DHT22;202;48.764;9.172;2024-02-14T15:10:51;15.20;26.50
431;DHT22;202;48.764;9.172;2024-02-14T15:13:18;15.30;26.50
431;DHT22;202;48.764;9.172;2024-02-14T15:15:45;15.30;26.00
431;DHT22;202;48.764;9.172;2024-02-14T15:18:12;15.30;26.10
431;DHT22;202;48.764;9.172;2024-02-14T15:20:39;15.30;26.10
431;DHT22;202;48.764;9.172;2024-02-14T15:23:06;15.30;26.30
431;DHT22;202;48.764;9.172;2024-02-14T15:25:36;15.30;26.80
431;DHT22;202;48.764;9.172;2024-02-14T15:28:07;15.30;26.10
431;DHT22;202;48.764;9.172;2024-02-14T15:30:38;15.30;26.10
431;DHT22;202;48.764;9.172;2024-02-14T15:33:23;15.40;26.20
431;DHT22;202;48.764;9.172;2024-02-14T15:35:50;15.30;26.10
431;DHT22;202;48.764;9.172;2024-02-14T15:38:22;15.30;26.20
431;DHT22;202;48.764;9.172;2024-02-14T15:40:52;15.30;26.10
431;DHT22;202;48.764;9.172;2024-02-14T15:43:23;15.30;26.30
431;DHT22;202;48.764;9.172;2024-02-14T15:45:50;15.40;26.20
431;DHT22;202;48.764;9.172;2024-02-14T15:48:17;15.30;26.10
431;DHT22;202;48.764;9.172;2024-02-14T15:50:45;15.30;26.20
431;DHT22;202;48.764;9.172;2024-02-14T15:53:12;15.30;26.20
431;DHT22;202;48.764;9.172;2024-02-14T15:55:39;15.30;26.50
431;DHT22;202;48.764;9.172;2024-02-14T15:58:08;15.30;26.60
431;DHT22;202;48.764;9.172;2024-02-14T16:00:35;15.30;26.50
431;DHT22;202;48.764;9.172;2024-02-14T16:03:03;15.20;26.50
431;DHT22;202;48.764;9.172;2024-02-14T16:05:30;15.30;26.60
431;DHT22;202;48.764;9.172;2024-02-14T16:07:58;15.20;26.60
431;DHT22;202;48.764;9.172;2024-02-14T16:10:24;15.30;26.50
431;DHT22;202;48.764;9.172;2024-02-14T16:12:53;15.20;26.60
431;DHT22;202;48.764;9.172;2024-02-14T16:15:25;15.30;26.70
431;DHT22;202;48.764;9.172;2024-02-14T16:17:52;15.30;26.50
431;DHT22;202;48.764;9.172;2024-02-14T16:20:20;15.30;26.40
431;DHT22;202;48.764;9.172;2024-02-14T16:22:47;15.30;26.50
431;DHT22;202;48.764;9.172;2024-02-14T16:25:13;15.30;26.30
431;DHT22;202;48.764;9.172;2024-02-14T16:27:43;15.30;26.40
431;DHT22;202;48.764;9.172;2024-02-14T16:30:14;15.30;26.40
431;DHT22;202;48.764;9.172;2024-02-14T16:32:42;15.30;26.60
431;DHT22;202;48.764;9.172;2024-02-14T16:35:11;15.20;26.50
431;DHT22;202;48.764;9.172;2024-02-14T16:37:38;15.20;26.60
431;DHT22;202;48.764;9.172;2024-02-14T16:40:12;15.10;26.70
431;DHT22;202;48.764;9.172;2024-02-14T16:42:42;15.20;26.60
431;DHT22;202;48.764;9.172;2024-02-14T16:45:11;15.20;26.60
431;DHT22;202;48.764;9.172;2024-02-14T16:47:47;15.20;26.60
431;DHT22;202;48.764;9.172;2024-02-14T16:50:15;15.20;26.70
431;DHT22;202;48.764;9.172;2024-02-14T16:52:42;15.20;26.80
431;DHT22;202;48.764;9.172;2024-02-14T16:55:08;15.10;26.70
431;DHT22;202;48.764;9.172;2024-02-14T16:57:35;15.20;26.80
431;DHT22;202;48.764;9.172;2024-02-14T17:00:03;15.20;26.80
431;DHT22;202;48.764;9.172;2024-02-14T17:02:30;15.20;26.70
431;DHT22;202;48.764;9.172;2024-02-14T17:04:59;15.20;26.70
431;DHT22;202;48.764;9.172;2024-02-14T17:07:29;15.10;26.70
431;DHT22;202;48.764;9.172;2024-02-14T17:09:56;15.10;26.80
431;DHT22;202;48.764;9.172;2024-02-14T17:12:24;15.10;26.80
431;DHT22;202;48.764;9.172;2024-02-14T17:14:53;15.10;26.90
431;DHT22;202;48.764;9.172;2024-02-14T17:17:22;15.10;27.00
431;DHT22;202;48.764;9.172;2024-02-14T17:19:49;15.10;27.10
431;DHT22;202;48.764;9.172;2024-02-14T17:22:29;15.10;27.00
431;DHT22;202;48.764;9.172;2024-02-14T17:24:57;15.10;27.20
431;DHT22;202;48.764;9.172;2024-02-14T17:27:39;15.10;27.20
431;DHT22;202;48.764;9.172;2024-02-14T17:30:07;15.10;27.30
431;DHT22;202;48.764;9.172;2024-02-14T17:32:39;15.10;27.30
431;DHT22;202;48.764;9.172;2024-02-14T17:35:11;15.00;28.00
431;DHT22;202;48.764;9.172;2024-02-14T17:37:39;15.00;27.60
431;DHT22;202;48.764;9.172;2024-02-14T17:40:13;15.00;27.60
431;DHT22;202;48.764;9.172;2024-02-14T17:42:42;15.00;27.80
431;DHT22;202;48.764;9.172;2024-02-14T17:45:11;15.00;27.80
431;DHT22;202;48.764;9.172;2024-02-14T17:47:39;14.90;28.00
431;DHT22;202;48.764;9.172;2024-02-14T17:50:07;15.00;27.90
431;DHT22;202;48.764;9.172;2024-02-14T17:52:35;15.00;27.90
431;DHT22;202;48.764;9.172;2024-02-14T17:55:05;15.00;27.80
431;DHT22;202;48.764;9.172;2024-02-14T17:57:32;15.00;27.80
431;DHT22;202;48.764;9.172;2024-02-14T18:00:01;15.00;27.70
431;DHT22;202;48.764;9.172;2024-02-14T18:02:28;15.00;28.00
431;DHT22;202;48.764;9.172;2024-02-14T18:04:58;15.00;28.10
431;DHT22;202;48.764;9.172;2024-02-14T18:07:30;15.10;27.90
431;DHT22;202;48.764;9.172;2024-02-14T18:09:57;15.00;28.30
431;DHT22;202;48.764;9.172;2024-02-14T18:12:25;15.00;28.50
431;DHT22;202;48.764;9.172;2024-02-14T18:14:52;14.90;28.40
431;DHT22;202;48.764;9.172;2024-02-14T18:17:19;14.90;28.40
431;DHT22;202;48.764;9.172;2024-02-14T18:19:48;14.90;28.40
431;DHT22;202;48.764;9.172;2024-02-14T18:22:14;14.70;28.70
431;DHT22;202;48.764;9.172;2024-02-14T18:24:44;14.80;28.60
431;DHT22;202;48.764;9.172;2024-02-14T18:27:14;14.80;28.40
431;DHT22;202;48.764;9.172;2024-02-14T18:29:43;14.90;28.70
431;DHT22;202;48.764;9.172;2024-02-14T18:32:12;14.90;28.80
431;DHT22;202;48.764;9.172;2024-02-14T18:34:42;14.80;28.90
431;DHT22;202;48.764;9.172;2024-02-14T18:37:14;14.80;29.10
431;DHT22;202;48.764;9.172;2024-02-14T18:39:41;14.80;29.10
431;DHT22;202;48.764;9.172;2024-02-14T18:42:09;14.90;29.20
431;DHT22;202;48.764;9.172;2024-02-14T18:44:37;14.80;29.10
431;DHT22;202;48.764;9.172;2024-02-14T18:47:11;14.80;29.40
431;DHT22;202;48.764;9.172;2024-02-14T18:49:38;14.80;29.40
431;DHT22;202;48.764;9.172;2024-02-14T18:52:12;14.70;29.70
431;DHT22;202;48.764;9.172;2024-02-14T18:54:41;14.80;29.60
431;DHT22;202;48.764;9.172;2024-02-14T18:57:08;14.80;29.60
431;DHT22;202;48.764;9.172;2024-02-14T18:59:38;14.80;29.60
431;DHT22;202;48.764;9.172;2024-02-14T19:02:10;14.80;29.80
431;DHT22;202;48.764;9.172;2024-02-14T19:04:37;14.80;29.80
431;DHT22;202;48.764;9.172;2024-02-14T19:07:07;14.70;29.90
431;DHT22;202;48.764;9.172;2024-02-14T19:09:35;14.80;30.20
431;DHT22;202;48.764;9.172;2024-02-14T19:12:03;14.70;30.40
431;DHT22;202;48.764;9.172;2024-02-14T19:14:30;14.60;30.70
431;DHT22;202;48.764;9.172;2024-02-14T19:16:59;14.60;30.70
431;DHT22;202;48.764;9.172;2024-02-14T19:19:27;14.60;30.60
431;DHT22;202;48.764;9.172;2024-02-14T19:21:56;14.60;30.80
431;DHT22;202;48.764;9.172;2024-02-14T19:24:23;14.60;30.80
431;DHT22;202;48.764;9.172;2024-02-14T19:26:49;14.60;31.00
431;DHT22;202;48.764;9.172;2024-02-14T19:29:19;14.60;31.20
431;DHT22;202;48.764;9.172;2024-02-14T19:31:48;14.50;31.50
431;DHT22;202;48.764;9.172;2024-02-14T19:34:15;14.50;31.70
431;DHT22;202;48.764;9.172;2024-02-14T19:36:43;14.40;31.90
431;DHT22;202;48.764;9.172;2024-02-14T19:39:10;14.40;32.10
431;DHT22;202;48.764;9.172;2024-02-14T19:41:39;14.40;32.30
431;DHT22;202;48.764;9.172;2024-02-14T19:44:13;14.40;32.60
431;DHT22;202;48.764;9.172;2024-02-14T19:46:41;14.40;32.60
431;DHT22;202;48.764;9.172;2024-02-14T19:49:10;14.30;32.70
431;DHT22;202;48.764;9.172;2024-02-14T19:51:39;14.40;32.90
431;DHT22;202;48.764;9.172;2024-02-14T19:54:24;14.40;33.00
431;DHT22;202;48.764;9.172;2024-02-14T19:56:52;14.40;32.90
431;DHT22;202;48.764;9.172;2024-02-14T19:59:24;14.30;32.70
431;DHT22;202;48.764;9.172;2024-02-14T20:01:53;14.30;32.70
431;DHT22;202;48.764;9.172;2024-02-14T20:04:24;14.30;32.90
431;DHT22;202;48.764;9.172;2024-02-14T20:06:51;14.30;33.10
431;DHT22;202;48.764;9.172;2024-02-14T20:09:26;14.40;33.10
431;DHT22;202;48.764;9.172;2024-02-14T20:11:53;14.40;33.10
431;DHT22;202;48.764;9.172;2024-02-14T20:14:23;14.30;33.30
431;DHT22;202;48.764;9.172;2024-02-14T20:16:56;14.30;33.90
431;DHT22;202;48.764;9.172;2024-02-14T20:19:26;14.30;33.30
431;DHT22;202;48.764;9.172;2024-02-14T20:21:55;14.30;33.40
431;DHT22;202;48.764;9.172;2024-02-14T20:24:27;14.30;33.60
431;DHT22;202;48.764;9.172;2024-02-14T20:27:12;14.20;33.50
431;DHT22;202;48.764;9.172;2024-02-14T20:29:45;14.20;33.80
431;DHT22;202;48.764;9.172;2024-02-14T20:32:20;14.20;33.80
431;DHT22;202;48.764;9.172;2024-02-14T20:34:52;14.30;33.70
431;DHT22;202;48.764;9.172;2024-02-14T20:37:26;14.20;33.90
431;DHT22;202;48.764;9.172;2024-02-14T20:46:30;14.10;34.40
431;DHT22;202;48.764;9.172;2024-02-14T20:49:14;14.10;37.40
431;DHT22;202;48.764;9.172;2024-02-14T20:51:53;14.00;35.90
431;DHT22;202;48.764;9.172;2024-02-14T21:00:01;14.00;36.20
431;DHT22;202;48.764;9.172;2024-02-14T21:02:37;14.00;35.90
431;DHT22;202;48.764;9.172;2024-02-14T21:05:11;14.00;36.30
431;DHT22;202;48.764;9.172;2024-02-14T21:07:53;13.90;36.30
431;DHT22;202;48.764;9.172;2024-02-14T21:10:25;13.80;36.70
431;DHT22;202;48.764;9.172;2024-02-14T21:13:02;13.90;36.60
431;DHT22;202;48.764;9.172;2024-02-14T21:15:32;13.90;36.60
431;DHT22;202;48.764;9.172;2024-02-14T21:18:07;13.80;36.90
431;DHT22;202;48.764;9.172;2024-02-14T21:20:46;13.90;36.90
431;DHT22;202;48.764;9.172;2024-02-14T21:23:38;13.90;37.10
431;DHT22;202;48.764;9.172;2024-02-14T21:26:11;13.90;36.60
431;DHT22;202;48.764;9.172;2024-02-14T21:29:05;13.80;37.10
431;DHT22;202;48.764;9.172;2024-02-14T21:31:40;13.80;37.10
431;DHT22;202;48.764;9.172;2024-02-14T21:34:11;13.80;37.30
431;DHT22;202;48.764;9.172;2024-02-14T21:36:43;13.80;37.10
431;DHT22;202;48.764;9.172;2024-02-14T21:39:12;13.80;37.10
431;DHT22;202;48.764;9.172;2024-02-14T21:41:43;13.80;37.10
431;DHT22;202;48.764;9.172;2024-02-14T21:44:20;13.80;37.10
431;DHT22;202;48.764;9.172;2024-02-14T21:47:00;13.80;37.10
431;DHT22;202;48.764;9.172;2024-02-14T21:49:37;13.80;37.10
431;DHT22;202;48.764;9.172;2024-02-14T21:52:14;13.80;37.20
431;DHT22;202;48.764;9.172;2024-02-14T21:54:46;13.90;37.20
431;DHT22;202;48.764;9.172;2024-02-14T21:57:32;13.80;37.10
431;DHT22;202;48.764;9.172;2024-02-14T22:00:16;13.70;37.50
431;DHT22;202;48.764;9.172;2024-02-14T22:05:37;13.70;38.10
431;DHT22;202;48.764;9.172;2024-02-14T22:08:09;13.80;38.00
431;DHT22;202;48.764;9.172;2024-02-14T22:10:47;13.90;37.30
431;DHT22;202;48.764;9.172;2024-02-14T22:13:20;13.80;37.30
431;DHT22;202;48.764;9.172;2024-02-14T22:15:50;13.90;37.20
431;DHT22;202;48.764;9.172;2024-02-14T22:18:28;13.90;37.20
431;DHT22;202;48.764;9.172;2024-02-14T22:21:02;13.90;37.20
431;DHT22;202;48.764;9.172;2024-02-14T22:23:34;13.90;37.20
431;DHT22;202;48.764;9.172;2024-02-14T22:26:07;13.90;37.20
431;DHT22;202;48.764;9.172;2024-02-14T22:28:44;14.00;37.30
431;DHT22;202;48.764;9.172;2024-02-14T22:31:19;13.90;37.20
431;DHT22;202;48.764;9.172;2024-02-14T22:33:52;13.80;37.20
431;DHT22;202;48.764;9.172;2024-02-14T22:36:25;13.80;37.10
431;DHT22;202;48.764;9.172;2024-02-14T22:38:59;13.80;37.60
431;DHT22;202;48.764;9.172;2024-02-14T22:41:36;13.70;38.50
431;DHT22;202;48.764;9.172;2024-02-14T22:44:07;13.70;38.30
431;DHT22;202;48.764;9.172;2024-02-14T22:46:38;13.80;38.00